Time;durP1;ratioP1;P1;durP2;ratioP2;P2;SDS_P1;SDS_P2;PMS_P1;PMS_P2;Temp;Humidity;BMP_temperature;BMP_pressure;BME280_temperature;BME280_humidity;BME280_pressure;Samples;Min_cycle;Max_cycle;Signal;HPM_P1;HPM_P2
2023/12/29 00:01:35;;;;;;;3.13;1.65;;;;;;;;;;5055699;28;20027;-55
2023/12/29 00:04:01;;;;;;;3.33;1.60;;;;;;;;;;5055827;28;20033;-52
2023/12/29 00:06:27;;;;;;;4.15;1.65;;;;;;;;;;5055519;28;20024;-57
2023/12/29 00:08:53;;;;;;;2.55;1.23;;;;;;;;;;5055667;28;20028;-55
2023/12/29 00:11:22;;;;;;;3.88;1.73;;;;;;;;;;5055040;28;20021;-56
2023/12/29 00:13:48;;;;;;;2.15;1.10;;;;;;;;;;5055226;28;20151;-55
2023/12/29 00:16:17;;;;;;;5.15;1.23;;;;;;;;;;5055170;28;20123;-55
2023/12/29 00:18:43;;;;;;;3.08;1.70;;;;;;;;;;5055833;28;20415;-51
2023/12/29 00:21:09;;;;;;;2.55;1.60;;;;;;;;;;5055145;28;20125;-56
2023/12/29 00:23:35;;;;;;;2.30;1.60;;;;;;;;;;5055172;28;20029;-55
2023/12/29 00:26:01;;;;;;;2.20;1.50;;;;;;;;;;5055119;28;20058;-55
2023/12/29 00:28:27;;;;;;;2.58;1.17;;;;;;;;;;5055692;28;20029;-57
2023/12/29 00:30:53;;;;;;;1.55;1.02;;;;;;;;;;5055278;28;20028;-56
2023/12/29 00:33:19;;;;;;;2.05;1.45;;;;;;;;;;5055475;28;20056;-56
2023/12/29 00:35:45;;;;;;;2.60;1.50;;;;;;;;;;5054914;28;20508;-56
2023/12/29 00:38:11;;;;;;;2.25;1.48;;;;;;;;;;5055235;28;20442;-55
2023/12/29 00:40:37;;;;;;;4.32;1.60;;;;;;;;;;5055197;28;20030;-57
2023/12/29 00:43:03;;;;;;;3.47;1.65;;;;;;;;;;5053994;28;20052;-56
2023/12/29 00:45:32;;;;;;;2.67;1.85;;;;;;;;;;5054958;28;20071;-57
2023/12/29 00:47:58;;;;;;;2.40;1.60;;;;;;;;;;5055262;28;20064;-57
2023/12/29 00:50:24;;;;;;;2.13;1.30;;;;;;;;;;5055168;28;20403;-57
2023/12/29 00:52:50;;;;;;;3.67;1.85;;;;;;;;;;5054631;28;20032;-56
2023/12/29 00:55:16;;;;;;;2.40;1.48;;;;;;;;;;5054609;28;20483;-57
2023/12/29 00:57:42;;;;;;;2.70;1.27;;;;;;;;;;5055004;28;20029;-56
2023/12/29 01:00:12;;;;;;;2.22;1.55;;;;;;;;;;5054413;28;20035;-55
2023/12/29 01:02:37;;;;;;;2.42;1.80;;;;;;;;;;5054304;28;20029;-56
2023/12/29 01:05:04;;;;;;;1.95;1.30;;;;;;;;;;5054354;28;20029;-56
2023/12/29 01:07:30;;;;;;;2.28;1.45;;;;;;;;;;5054423;28;20417;-55
2023/12/29 01:09:56;;;;;;;2.50;1.60;;;;;;;;;;5054550;28;20048;-56
2023/12/29 01:12:22;;;;;;;2.30;1.42;;;;;;;;;;5053961;28;20032;-57
2023/12/29 01:14:47;;;;;;;3.15;1.95;;;;;;;;;;5053821;28;20024;-56
2023/12/29 01:17:13;;;;;;;2.92;1.85;;;;;;;;;;5054477;28;20040;-57
2023/12/29 01:19:39;;;;;;;2.40;1.80;;;;;;;;;;5054441;28;20024;-56
2023/12/29 01:22:05;;;;;;;3.90;1.80;;;;;;;;;;5054149;28;20029;-56
2023/12/29 01:24:31;;;;;;;2.72;1.40;;;;;;;;;;5054113;28;20060;-53
2023/12/29 01:26:57;;;;;;;3.50;2.13;;;;;;;;;;5053725;28;20032;-55
2023/12/29 01:29:23;;;;;;;2.97;2.13;;;;;;;;;;5054295;28;20025;-55
2023/12/29 01:31:49;;;;;;;3.72;1.70;;;;;;;;;;5053935;28;20374;-55
2023/12/29 01:34:15;;;;;;;2.60;1.70;;;;;;;;;;5053845;28;20029;-56
2023/12/29 01:36:41;;;;;;;4.80;1.88;;;;;;;;;;5053814;28;20065;-57
2023/12/29 01:39:07;;;;;;;2.72;2.00;;;;;;;;;;5054170;28;20108;-53
2023/12/29 01:41:33;;;;;;;2.63;1.95;;;;;;;;;;5053765;28;20025;-54
2023/12/29 01:44:02;;;;;;;2.55;2.00;;;;;;;;;;5053740;28;20344;-54
2023/12/29 01:46:30;;;;;;;2.47;1.65;;;;;;;;;;5053454;28;20029;-55
2023/12/29 01:48:56;;;;;;;3.60;1.90;;;;;;;;;;5053555;28;20450;-54
2023/12/29 01:51:24;;;;;;;3.92;2.28;;;;;;;;;;5053645;28;20033;-56
2023/12/29 01:53:50;;;;;;;3.78;2.38;;;;;;;;;;5054176;28;20116;-55
2023/12/29 01:56:17;;;;;;;2.67;1.73;;;;;;;;;;5054352;28;20060;-53
2023/12/29 01:58:44;;;;;;;3.72;2.00;;;;;;;;;;5054258;28;20092;-56
2023/12/29 02:01:10;;;;;;;2.30;1.73;;;;;;;;;;5053504;28;20036;-53
2023/12/29 02:03:37;;;;;;;2.97;2.08;;;;;;;;;;5053519;28;20024;-56
2023/12/29 02:06:06;;;;;;;3.85;2.30;;;;;;;;;;5054045;28;20029;-55
2023/12/29 02:08:32;;;;;;;3.78;1.80;;;;;;;;;;5053888;28;20033;-56
2023/12/29 02:10:58;;;;;;;3.55;1.90;;;;;;;;;;5053522;28;20021;-55
2023/12/29 02:13:24;;;;;;;2.83;2.05;;;;;;;;;;5053733;28;20392;-56
2023/12/29 02:15:54;;;;;;;4.97;2.22;;;;;;;;;;5053056;28;20029;-56
2023/12/29 02:18:21;;;;;;;3.45;2.40;;;;;;;;;;5053919;28;20032;-55
2023/12/29 02:20:47;;;;;;;2.55;1.73;;;;;;;;;;5053696;28;20356;-54
2023/12/29 02:23:13;;;;;;;3.53;2.25;;;;;;;;;;5053346;28;20018;-56
2023/12/29 02:25:39;;;;;;;3.03;2.13;;;;;;;;;;5053348;28;20029;-55
2023/12/29 02:28:09;;;;;;;4.97;2.40;;;;;;;;;;5053129;28;20061;-56
2023/12/29 02:30:52;;;;;;;3.25;1.98;;;;;;;;;;5053748;28;20426;-53
2023/12/29 02:33:20;;;;;;;3.08;2.25;;;;;;;;;;5053326;28;20075;-55
2023/12/29 02:35:48;;;;;;;3.25;2.50;;;;;;;;;;5053222;28;20087;-56
2023/12/29 02:38:14;;;;;;;4.75;2.72;;;;;;;;;;5054134;28;20056;-57
2023/12/29 02:40:40;;;;;;;3.72;2.63;;;;;;;;;;5053515;28;20358;-55
2023/12/29 02:43:06;;;;;;;4.15;2.45;;;;;;;;;;5053526;28;20045;-54
2023/12/29 02:45:32;;;;;;;3.63;2.03;;;;;;;;;;5053179;28;20036;-55
2023/12/29 02:47:58;;;;;;;2.97;2.15;;;;;;;;;;5053754;28;20505;-56
2023/12/29 02:50:24;;;;;;;2.55;1.98;;;;;;;;;;5053122;28;20521;-54
2023/12/29 02:52:50;;;;;;;2.45;2.00;;;;;;;;;;5053090;28;20021;-55
2023/12/29 02:55:16;;;;;;;3.33;2.00;;;;;;;;;;5052756;28;20056;-56
2023/12/29 02:57:42;;;;;;;4.05;2.53;;;;;;;;;;5053823;28;20029;-55
2023/12/29 03:00:08;;;;;;;3.85;2.50;;;;;;;;;;5052979;28;20053;-53
2023/12/29 03:02:34;;;;;;;3.33;2.35;;;;;;;;;;5052840;28;20035;-54
2023/12/29 03:05:00;;;;;;;3.70;2.47;;;;;;;;;;5053481;28;20375;-53
2023/12/29 03:07:26;;;;;;;2.88;1.95;;;;;;;;;;5057403;28;20021;-54
2023/12/29 03:09:52;;;;;;;4.40;2.00;;;;;;;;;;5057146;28;20538;-54
2023/12/29 03:12:18;;;;;;;3.33;2.33;;;;;;;;;;5056486;28;20052;-53
2023/12/29 03:14:47;;;;;;;4.93;2.35;;;;;;;;;;5056926;28;20118;-53
2023/12/29 03:17:13;;;;;;;3.95;2.38;;;;;;;;;;5056627;28;20036;-56
2023/12/29 03:19:39;;;;;;;3.78;2.47;;;;;;;;;;5056729;28;20025;-56
2023/12/29 03:22:05;;;;;;;5.60;2.70;;;;;;;;;;5056302;28;20028;-57
2023/12/29 03:24:31;;;;;;;3.40;2.53;;;;;;;;;;5055956;28;20031;-55
2023/12/29 03:26:57;;;;;;;3.08;2.55;;;;;;;;;;5056573;28;20025;-55
2023/12/29 03:29:26;;;;;;;6.28;3.33;;;;;;;;;;5055971;28;20064;-53
2023/12/29 03:31:51;;;;;;;3.28;2.35;;;;;;;;;;5056111;28;20120;-56
2023/12/29 03:34:19;;;;;;;4.25;2.92;;;;;;;;;;5056165;28;20048;-55
2023/12/29 03:36:45;;;;;;;4.18;2.60;;;;;;;;;;5055900;28;20068;-56
2023/12/29 03:39:11;;;;;;;3.78;2.45;;;;;;;;;;5056601;28;20067;-56
2023/12/29 03:41:38;;;;;;;8.23;3.22;;;;;;;;;;5056418;28;20025;-53
2023/12/29 03:44:05;;;;;;;3.25;2.65;;;;;;;;;;5056716;28;20112;-55
2023/12/29 03:46:32;;;;;;;3.17;2.30;;;;;;;;;;5055521;28;20087;-54
2023/12/29 03:48:58;;;;;;;5.25;2.72;;;;;;;;;;5056136;28;20074;-54
2023/12/29 03:51:24;;;;;;;4.82;2.42;;;;;;;;;;5056305;28;20112;-56
2023/12/29 03:53:50;;;;;;;3.25;2.53;;;;;;;;;;5055487;28;20044;-56
2023/12/29 03:56:17;;;;;;;3.42;1.90;;;;;;;;;;5055712;28;20498;-56
2023/12/29 03:58:43;;;;;;;3.13;2.55;;;;;;;;;;5055469;28;20028;-56
2023/12/29 04:01:11;;;;;;;3.38;2.17;;;;;;;;;;5055504;28;20024;-55
2023/12/29 04:03:37;;;;;;;2.65;2.13;;;;;;;;;;5055737;28;20029;-54
2023/12/29 04:06:03;;;;;;;3.15;1.95;;;;;;;;;;5055803;28;20057;-54
2023/12/29 04:08:28;;;;;;;2.58;2.00;;;;;;;;;;5055521;28;20059;-54
2023/12/29 04:10:57;;;;;;;3.35;2.00;;;;;;;;;;5055693;28;20024;-56
2023/12/29 04:13:23;;;;;;;3.28;2.40;;;;;;;;;;5055353;28;20029;-54
2023/12/29 04:15:49;;;;;;;3.15;2.17;;;;;;;;;;5055440;28;20043;-54
2023/12/29 04:18:15;;;;;;;4.90;2.20;;;;;;;;;;5055891;28;20021;-56
2023/12/29 04:20:41;;;;;;;4.90;2.30;;;;;;;;;;5055329;28;20025;-54
2023/12/29 04:23:07;;;;;;;3.65;2.20;;;;;;;;;;5055224;28;20035;-54
2023/12/29 04:25:33;;;;;;;3.78;2.63;;;;;;;;;;5055648;28;20036;-56
2023/12/29 04:27:59;;;;;;;2.65;2.03;;;;;;;;;;5055629;28;20424;-55
2023/12/29 04:30:25;;;;;;;3.28;2.47;;;;;;;;;;5055350;28;20045;-55
2023/12/29 04:32:51;;;;;;;3.20;2.13;;;;;;;;;;5054953;28;20025;-54
2023/12/29 04:35:17;;;;;;;3.20;2.28;;;;;;;;;;5055646;28;20402;-56
2023/12/29 04:37:45;;;;;;;4.72;2.83;;;;;;;;;;5055193;28;20111;-56
2023/12/29 04:40:11;;;;;;;5.03;2.10;;;;;;;;;;5055373;28;20213;-55
2023/12/29 04:42:37;;;;;;;4.45;2.40;;;;;;;;;;5054729;28;20029;-57
2023/12/29 04:45:04;;;;;;;3.33;2.08;;;;;;;;;;5054770;28;20033;-56
2023/12/29 04:47:30;;;;;;;3.35;2.20;;;;;;;;;;5054843;28;20032;-53
2023/12/29 04:49:55;;;;;;;2.95;2.35;;;;;;;;;;5054645;28;20463;-57
2023/12/29 04:52:21;;;;;;;4.82;2.58;;;;;;;;;;5054895;28;20036;-56
2023/12/29 04:54:47;;;;;;;3.55;2.40;;;;;;;;;;5054188;28;20045;-53
2023/12/29 04:57:13;;;;;;;2.88;2.00;;;;;;;;;;5055244;28;20439;-54
2023/12/29 04:59:39;;;;;;;3.33;2.33;;;;;;;;;;5054490;28;20108;-56
2023/12/29 05:02:05;;;;;;;2.53;1.85;;;;;;;;;;5054640;28;20449;-53
2023/12/29 05:04:31;;;;;;;2.83;2.15;;;;;;;;;;5054565;28;20490;-55
2023/12/29 05:06:57;;;;;;;4.22;2.25;;;;;;;;;;5054933;28;20051;-56
2023/12/29 05:09:23;;;;;;;3.60;2.15;;;;;;;;;;5054974;28;20020;-56
2023/12/29 05:11:49;;;;;;;3.53;2.25;;;;;;;;;;5054887;28;20037;-55
2023/12/29 05:14:15;;;;;;;4.60;2.67;;;;;;;;;;5054372;28;20036;-55
2023/12/29 05:16:44;;;;;;;3.38;2.50;;;;;;;;;;5054220;28;20025;-56
2023/12/29 05:19:10;;;;;;;3.10;2.08;;;;;;;;;;5054484;28;20111;-55
2023/12/29 05:21:36;;;;;;;3.05;2.38;;;;;;;;;;5054693;28;20060;-56
2023/12/29 05:24:04;;;;;;;4.40;1.98;;;;;;;;;;5054026;28;20025;-52
2023/12/29 05:26:29;;;;;;;3.28;2.20;;;;;;;;;;5054930;28;20090;-56
2023/12/29 05:28:55;;;;;;;3.47;2.13;;;;;;;;;;5054506;28;20104;-54
2023/12/29 05:31:21;;;;;;;5.78;2.60;;;;;;;;;;5054041;28;20040;-56
2023/12/29 05:33:47;;;;;;;3.38;2.35;;;;;;;;;;5053939;28;20025;-56
2023/12/29 05:36:13;;;;;;;2.80;2.30;;;;;;;;;;5053733;28;20051;-56
2023/12/29 05:38:41;;;;;;;3.10;2.10;;;;;;;;;;5054414;28;20032;-57
2023/12/29 05:41:07;;;;;;;2.95;2.20;;;;;;;;;;5053874;28;20060;-56
2023/12/29 05:43:33;;;;;;;3.60;2.42;;;;;;;;;;5053826;28;20029;-55
2023/12/29 05:46:00;;;;;;;3.83;2.47;;;;;;;;;;5054388;28;20032;-56
2023/12/29 05:48:26;;;;;;;4.80;2.47;;;;;;;;;;5053798;28;20021;-56
2023/12/29 05:50:52;;;;;;;6.50;2.63;;;;;;;;;;5053792;28;20091;-55
2023/12/29 05:53:18;;;;;;;3.67;2.67;;;;;;;;;;5053728;28;20107;-54
2023/12/29 05:55:45;;;;;;;4.22;2.50;;;;;;;;;;5052198;28;20459;-54
2023/12/29 05:58:11;;;;;;;3.92;2.85;;;;;;;;;;5053714;28;20032;-56
2023/12/29 06:00:40;;;;;;;2.92;2.15;;;;;;;;;;5054096;28;20021;-54
2023/12/29 06:03:06;;;;;;;3.42;2.42;;;;;;;;;;5053288;28;20036;-55
2023/12/29 06:05:33;;;;;;;4.18;2.80;;;;;;;;;;5054456;28;20033;-56
2023/12/29 06:07:59;;;;;;;3.65;2.65;;;;;;;;;;5054195;28;20060;-52
2023/12/29 06:10:25;;;;;;;3.20;2.10;;;;;;;;;;5053580;28;20494;-56
2023/12/29 06:12:51;;;;;;;5.35;2.53;;;;;;;;;;5053550;28;20036;-53
2023/12/29 06:15:17;;;;;;;3.50;2.50;;;;;;;;;;5053486;28;20374;-53
2023/12/29 06:17:43;;;;;;;3.03;2.10;;;;;;;;;;5054109;28;20025;-56
2023/12/29 06:20:10;;;;;;;3.15;2.38;;;;;;;;;;5053456;28;20090;-54
2023/12/29 06:22:40;;;;;;;3.30;2.45;;;;;;;;;;5054271;28;20021;-54
2023/12/29 06:25:10;;;;;;;5.65;2.95;;;;;;;;;;5054043;28;20409;-56
2023/12/29 06:27:37;;;;;;;3.35;2.38;;;;;;;;;;5053583;28;20091;-55
2023/12/29 06:30:05;;;;;;;3.78;2.65;;;;;;;;;;5053359;28;20025;-53
2023/12/29 06:32:31;;;;;;;3.22;2.58;;;;;;;;;;5053978;28;20036;-53
2023/12/29 06:34:57;;;;;;;4.40;2.33;;;;;;;;;;5053765;28;20021;-56
2023/12/29 06:37:23;;;;;;;3.08;1.88;;;;;;;;;;5054200;28;20022;-56
2023/12/29 06:39:49;;;;;;;3.42;2.22;;;;;;;;;;5053193;28;20355;-56
2023/12/29 06:42:15;;;;;;;3.40;2.05;;;;;;;;;;5057202;28;20029;-56
2023/12/29 06:44:41;;;;;;;3.47;2.45;;;;;;;;;;5057437;28;20082;-54
2023/12/29 06:47:07;;;;;;;3.10;2.15;;;;;;;;;;5057634;28;20040;-56
2023/12/29 06:49:35;;;;;;;4.13;2.60;;;;;;;;;;5057055;28;20021;-56
2023/12/29 06:52:01;;;;;;;4.13;2.28;;;;;;;;;;5056951;28;20483;-55
2023/12/29 06:54:27;;;;;;;3.25;2.13;;;;;;;;;;5056988;28;20029;-54
2023/12/29 06:56:53;;;;;;;4.70;2.72;;;;;;;;;;5057693;28;20032;-54
2023/12/29 06:59:19;;;;;;;4.22;2.85;;;;;;;;;;5056921;28;20425;-55
2023/12/29 07:01:45;;;;;;;4.55;2.50;;;;;;;;;;5056768;28;20107;-55
2023/12/29 07:04:12;;;;;;;4.45;2.22;;;;;;;;;;5057576;28;20033;-56
2023/12/29 07:06:38;;;;;;;3.20;2.42;;;;;;;;;;5056400;28;20025;-56
2023/12/29 07:09:04;;;;;;;3.45;2.22;;;;;;;;;;5057309;28;20083;-55
2023/12/29 07:11:30;;;;;;;3.38;2.42;;;;;;;;;;5056649;28;20044;-56
2023/12/29 07:13:56;;;;;;;4.97;2.40;;;;;;;;;;5057350;28;20029;-55
2023/12/29 07:16:22;;;;;;;2.72;1.58;;;;;;;;;;5056472;28;20033;-56
2023/12/29 07:18:48;;;;;;;2.95;2.05;;;;;;;;;;5057082;28;20070;-56
2023/12/29 07:21:16;;;;;;;2.45;1.83;;;;;;;;;;5056481;28;20021;-56
2023/12/29 07:23:42;;;;;;;3.25;2.15;;;;;;;;;;5056931;28;20387;-56
2023/12/29 07:26:08;;;;;;;2.90;1.92;;;;;;;;;;5056664;28;20029;-54
2023/12/29 07:28:37;;;;;;;5.15;2.80;;;;;;;;;;5056834;28;20051;-55
2023/12/29 07:31:03;;;;;;;3.55;2.58;;;;;;;;;;5056504;28;20025;-56
2023/12/29 07:33:29;;;;;;;3.00;2.22;;;;;;;;;;5056148;28;20025;-55
2023/12/29 07:35:55;;;;;;;3.08;2.30;;;;;;;;;;5056330;28;20091;-54
2023/12/29 07:38:21;;;;;;;2.83;2.10;;;;;;;;;;5056417;28;20029;-56
2023/12/29 07:40:50;;;;;;;2.80;1.70;;;;;;;;;;5056120;28;20104;-57
2023/12/29 07:43:16;;;;;;;3.15;2.22;;;;;;;;;;5055924;28;20049;-57
2023/12/29 07:45:43;;;;;;;3.25;1.65;;;;;;;;;;5056487;28;20052;-55
2023/12/29 07:48:09;;;;;;;3.70;2.40;;;;;;;;;;5055975;28;20036;-56
2023/12/29 07:50:36;;;;;;;3.72;2.30;;;;;;;;;;5055411;28;20083;-56
2023/12/29 07:53:03;;;;;;;3.25;2.13;;;;;;;;;;5056152;28;20422;-53
2023/12/29 07:55:29;;;;;;;2.80;2.10;;;;;;;;;;5055716;28;20060;-55
2023/12/29 07:57:55;;;;;;;4.07;2.08;;;;;;;;;;5056261;28;20344;-56
2023/12/29 08:00:22;;;;;;;2.67;1.75;;;;;;;;;;5056216;28;20039;-56
2023/12/29 08:02:47;;;;;;;3.80;2.70;;;;;;;;;;5055569;28;20056;-57
2023/12/29 08:05:15;;;;;;;3.25;2.28;;;;;;;;;;5056419;28;20347;-56
2023/12/29 08:07:41;;;;;;;3.40;2.20;;;;;;;;;;5055577;28;20028;-57
2023/12/29 08:10:07;;;;;;;4.55;2.38;;;;;;;;;;5055481;28;20060;-57
2023/12/29 08:12:34;;;;;;;3.83;2.20;;;;;;;;;;5055457;28;20099;-56
2023/12/29 08:15:00;;;;;;;3.97;2.10;;;;;;;;;;5055314;28;20032;-57
2023/12/29 08:17:27;;;;;;;2.80;2.03;;;;;;;;;;5055864;28;20029;-57
2023/12/29 08:19:53;;;;;;;8.57;2.28;;;;;;;;;;5055730;28;20032;-57
2023/12/29 08:22:20;;;;;;;2.78;1.80;;;;;;;;;;5055461;28;20025;-57
2023/12/29 08:24:45;;;;;;;2.75;2.10;;;;;;;;;;5055186;28;20469;-57
2023/12/29 08:27:15;;;;;;;4.95;1.80;;;;;;;;;;5055507;28;20120;-54
2023/12/29 08:29:41;;;;;;;2.92;2.00;;;;;;;;;;5055682;28;20037;-57
2023/12/29 08:32:07;;;;;;;2.97;2.03;;;;;;;;;;5055101;28;20033;-57
2023/12/29 08:34:37;;;;;;;3.83;2.10;;;;;;;;;;5055168;28;20021;-57
2023/12/29 08:37:04;;;;;;;2.78;2.00;;;;;;;;;;5055032;28;20103;-57
2023/12/29 08:39:30;;;;;;;3.58;3.25;;;;;;;;;;5055386;28;20025;-56
2023/12/29 08:41:56;;;;;;;3.72;1.63;;;;;;;;;;5054725;28;20032;-55
2023/12/29 08:44:21;;;;;;;2.80;1.90;;;;;;;;;;5055468;28;20455;-55
2023/12/29 08:46:47;;;;;;;3.80;2.00;;;;;;;;;;5054537;28;20037;-57
2023/12/29 08:49:13;;;;;;;5.30;2.25;;;;;;;;;;5055283;28;20059;-56
2023/12/29 08:51:39;;;;;;;2.70;1.85;;;;;;;;;;5054324;28;20054;-57
2023/12/29 08:54:30;;;;;;;3.17;2.03;;;;;;;;;;5054387;28;20112;-56
2023/12/29 08:56:56;;;;;;;2.95;1.70;;;;;;;;;;5055143;28;20052;-56
2023/12/29 08:59:23;;;;;;;4.20;2.30;;;;;;;;;;5055175;28;20028;-56
2023/12/29 09:01:49;;;;;;;3.83;1.70;;;;;;;;;;5055214;28;20021;-56
2023/12/29 09:04:15;;;;;;;5.88;2.08;;;;;;;;;;5054076;28;20028;-55
2023/12/29 09:06:44;;;;;;;2.80;1.80;;;;;;;;;;5054589;28;20036;-57
2023/12/29 09:09:12;;;;;;;3.47;2.13;;;;;;;;;;5054738;28;20106;-57
2023/12/29 09:11:39;;;;;;;3.40;1.88;;;;;;;;;;5054857;28;20029;-54
2023/12/29 09:14:05;;;;;;;3.38;2.00;;;;;;;;;;5054790;28;20052;-55
2023/12/29 09:16:31;;;;;;;3.33;1.45;;;;;;;;;;5053936;28;20550;-56
2023/12/29 09:18:57;;;;;;;3.28;2.17;;;;;;;;;;5054544;28;20055;-53
2023/12/29 09:21:23;;;;;;;2.50;1.52;;;;;;;;;;5054282;28;20029;-53
2023/12/29 09:23:50;;;;;;;3.90;1.83;;;;;;;;;;5054735;28;20021;-55
2023/12/29 09:26:16;;;;;;;2.15;1.48;;;;;;;;;;5054028;28;20430;-57
2023/12/29 09:28:45;;;;;;;4.10;1.55;;;;;;;;;;5053963;28;20025;-54
2023/12/29 09:31:11;;;;;;;2.05;1.38;;;;;;;;;;5054878;28;20028;-57
2023/12/29 09:33:37;;;;;;;2.28;1.55;;;;;;;;;;5053903;28;20024;-54
2023/12/29 09:36:04;;;;;;;3.33;1.67;;;;;;;;;;5053783;28;20033;-57
2023/12/29 09:38:30;;;;;;;2.33;1.35;;;;;;;;;;5054758;28;20163;-57
2023/12/29 09:40:58;;;;;;;2.30;1.40;;;;;;;;;;5053342;28;20063;-59
2023/12/29 09:43:25;;;;;;;1.80;1.30;;;;;;;;;;5053905;28;20032;-59
2023/12/29 09:45:52;;;;;;;5.15;1.30;;;;;;;;;;5052830;28;20498;-58
2023/12/29 09:48:20;;;;;;;2.20;1.48;;;;;;;;;;5053626;28;20451;-60
2023/12/29 09:53:42;;;;;;;2.53;1.55;;;;;;;;;;5053116;28;20082;-60
2023/12/29 09:56:09;;;;;;;2.45;1.23;;;;;;;;;;5053531;28;20518;-60
2023/12/29 09:58:38;;;;;;;5.00;1.48;;;;;;;;;;5053688;28;20091;-61
2023/12/29 10:01:06;;;;;;;2.33;1.45;;;;;;;;;;5053125;28;20463;-60
2023/12/29 10:03:32;;;;;;;2.30;1.23;;;;;;;;;;5053288;28;20405;-60
2023/12/29 10:06:00;;;;;;;2.63;1.73;;;;;;;;;;5053816;28;20086;-60
2023/12/29 10:08:28;;;;;;;1.58;1.02;;;;;;;;;;5054111;28;20390;-60
2023/12/29 10:10:56;;;;;;;2.42;1.35;;;;;;;;;;5054227;28;20410;-60
2023/12/29 10:13:22;;;;;;;2.00;1.35;;;;;;;;;;5053109;28;20081;-60
2023/12/29 10:15:50;;;;;;;2.65;1.75;;;;;;;;;;5056904;28;20036;-60
2023/12/29 10:18:27;;;;;;;3.25;1.90;;;;;;;;;;5057812;28;20078;-60
2023/12/29 10:20:57;;;;;;;5.20;1.17;;;;;;;;;;5057246;28;20029;-60
2023/12/29 10:23:29;;;;;;;2.63;1.40;;;;;;;;;;5057880;28;20374;-60
2023/12/29 10:25:55;;;;;;;1.88;1.08;;;;;;;;;;5057951;28;20037;-60
2023/12/29 10:28:21;;;;;;;2.38;1.40;;;;;;;;;;5057936;28;20390;-60
2023/12/29 10:30:48;;;;;;;3.88;1.13;;;;;;;;;;5057397;28;20021;-60
2023/12/29 10:33:21;;;;;;;1.80;1.05;;;;;;;;;;5057170;28;20125;-60
2023/12/29 10:36:02;;;;;;;1.83;1.27;;;;;;;;;;5057144;28;20044;-60
2023/12/29 10:38:28;;;;;;;2.47;1.10;;;;;;;;;;5057523;28;20052;-60
2023/12/29 10:40:54;;;;;;;1.98;1.10;;;;;;;;;;5056958;28;20094;-60
2023/12/29 10:43:26;;;;;;;2.53;1.30;;;;;;;;;;5056907;28;20029;-60
2023/12/29 10:49:18;;;;;;;1.83;1.05;;;;;;;;;;5029802;28;20406;-60
2023/12/29 10:51:44;;;;;;;2.28;1.10;;;;;;;;;;5034649;28;20036;-60
2023/12/29 10:54:19;;;;;;;2.58;1.27;;;;;;;;;;5044957;28;20122;-60
2023/12/29 10:56:45;;;;;;;1.55;0.93;;;;;;;;;;5057376;28;20048;-59
2023/12/29 10:59:13;;;;;;;1.95;0.95;;;;;;;;;;5056861;28;20108;-60
2023/12/29 11:01:39;;;;;;;1.77;1.00;;;;;;;;;;5057429;28;20028;-59
2023/12/29 11:04:06;;;;;;;2.00;1.13;;;;;;;;;;5056690;28;20100;-60
2023/12/29 11:06:44;;;;;;;1.92;0.93;;;;;;;;;;5056593;28;20029;-60
2023/12/29 11:09:11;;;;;;;2.10;1.17;;;;;;;;;;5057506;28;20411;-58
2023/12/29 11:11:37;;;;;;;1.88;1.10;;;;;;;;;;5057068;28;20029;-58
2023/12/29 11:14:03;;;;;;;2.40;1.10;;;;;;;;;;5056856;28;20340;-58
2023/12/29 11:16:31;;;;;;;4.32;1.45;;;;;;;;;;5056383;28;20139;-58
2023/12/29 11:18:58;;;;;;;1.88;1.00;;;;;;;;;;5057014;28;20440;-58
2023/12/29 11:21:25;;;;;;;1.92;0.85;;;;;;;;;;5056536;28;20029;-58
2023/12/29 11:23:51;;;;;;;1.83;0.90;;;;;;;;;;5056408;28;20120;-60
2023/12/29 11:26:17;;;;;;;4.30;1.17;;;;;;;;;;5055236;28;20057;-60
2023/12/29 11:28:44;;;;;;;1.50;0.85;;;;;;;;;;5056675;28;20096;-60
2023/12/29 11:31:10;;;;;;;1.17;0.63;;;;;;;;;;5056212;28;20025;-59
2023/12/29 11:33:40;;;;;;;1.92;1.05;;;;;;;;;;5056425;28;20078;-60
2023/12/29 11:36:22;;;;;;;1.58;0.85;;;;;;;;;;5056649;28;20044;-60
2023/12/29 11:39:06;;;;;;;1.95;0.88;;;;;;;;;;5056097;28;20040;-60
2023/12/29 11:41:44;;;;;;;1.58;0.80;;;;;;;;;;5055936;28;20036;-60
2023/12/29 11:44:10;;;;;;;1.92;1.00;;;;;;;;;;5055948;28;20033;-60
2023/12/29 11:46:42;;;;;;;3.05;1.05;;;;;;;;;;5055955;28;20420;-60
2023/12/29 11:49:08;;;;;;;1.58;0.80;;;;;;;;;;5056471;28;20098;-60
2023/12/29 11:51:36;;;;;;;2.03;0.80;;;;;;;;;;5056125;28;20455;-60
2023/12/29 11:54:02;;;;;;;1.73;0.88;;;;;;;;;;5056425;28;20056;-60
2023/12/29 11:56:40;;;;;;;1.27;0.80;;;;;;;;;;5055918;28;20053;-60
2023/12/29 11:59:15;;;;;;;2.20;1.02;;;;;;;;;;5056228;28;20079;-60
2023/12/29 12:01:41;;;;;;;1.27;0.75;;;;;;;;;;5055857;28;20490;-60
2023/12/29 12:04:26;;;;;;;1.45;0.80;;;;;;;;;;5055915;28;20072;-60
2023/12/29 12:06:55;;;;;;;1.73;0.82;;;;;;;;;;5056014;28;20047;-60
2023/12/29 12:09:24;;;;;;;1.85;0.90;;;;;;;;;;5055207;28;20663;-60
2023/12/29 12:11:50;;;;;;;1.30;0.57;;;;;;;;;;5055436;28;20025;-60
2023/12/29 12:14:35;;;;;;;1.20;0.75;;;;;;;;;;5056247;28;20021;-60
2023/12/29 12:17:01;;;;;;;1.55;0.70;;;;;;;;;;5055354;28;20045;-60
2023/12/29 12:19:29;;;;;;;1.35;0.80;;;;;;;;;;5055768;28;20021;-60
2023/12/29 12:21:56;;;;;;;2.17;1.30;;;;;;;;;;5055235;28;20078;-60
2023/12/29 12:24:22;;;;;;;4.35;1.13;;;;;;;;;;5055718;28;20100;-60
2023/12/29 12:26:49;;;;;;;1.70;0.82;;;;;;;;;;5055247;28;20478;-60
2023/12/29 12:29:15;;;;;;;1.73;0.90;;;;;;;;;;5055758;28;20374;-60
2023/12/29 12:31:54;;;;;;;1.40;0.70;;;;;;;;;;5054856;28;20099;-60
2023/12/29 12:34:20;;;;;;;1.75;0.82;;;;;;;;;;5055612;28;20045;-60
2023/12/29 12:36:50;;;;;;;2.28;1.13;;;;;;;;;;5054668;28;20033;-60
2023/12/29 12:39:16;;;;;;;1.30;0.90;;;;;;;;;;5054275;28;20036;-59
2023/12/29 12:41:42;;;;;;;1.33;0.75;;;;;;;;;;5054705;28;20533;-60
2023/12/29 12:44:13;;;;;;;2.70;0.70;;;;;;;;;;5055178;28;20028;-59
2023/12/29 12:46:50;;;;;;;1.60;0.77;;;;;;;;;;5054791;28;20029;-60
2023/12/29 12:49:17;;;;;;;1.70;0.90;;;;;;;;;;5053934;28;20071;-60
2023/12/29 12:51:43;;;;;;;1.55;0.73;;;;;;;;;;5055435;28;20028;-60
2023/12/29 12:54:10;;;;;;;2.25;0.80;;;;;;;;;;5055336;28;20032;-60
2023/12/29 12:56:36;;;;;;;1.80;0.60;;;;;;;;;;5055178;28;20077;-60
2023/12/29 12:59:03;;;;;;;2.28;1.00;;;;;;;;;;5054601;28;20459;-60
2023/12/29 13:01:29;;;;;;;1.77;0.90;;;;;;;;;;5054394;28;20024;-60
2023/12/29 13:03:56;;;;;;;1.35;0.77;;;;;;;;;;5054684;28;20036;-58
2023/12/29 13:06:22;;;;;;;1.75;0.93;;;;;;;;;;5054420;28;20379;-58
2023/12/29 13:08:52;;;;;;;1.83;0.95;;;;;;;;;;5054954;28;20100;-58
2023/12/29 13:11:25;;;;;;;2.38;1.13;;;;;;;;;;5054204;28;20017;-58
2023/12/29 13:13:56;;;;;;;3.58;0.52;;;;;;;;;;5054769;28;20450;-58
2023/12/29 13:16:50;;;;;;;4.03;1.08;;;;;;;;;;5054545;28;20124;-58
2023/12/29 13:19:18;;;;;;;1.90;1.00;;;;;;;;;;5053181;28;20041;-57
2023/12/29 13:21:45;;;;;;;1.40;0.90;;;;;;;;;;5054117;28;20033;-58
2023/12/29 13:24:11;;;;;;;1.40;0.70;;;;;;;;;;5054038;28;20067;-58
2023/12/29 13:26:38;;;;;;;3.08;1.25;;;;;;;;;;5054321;28;20087;-58
2023/12/29 13:29:04;;;;;;;1.35;0.70;;;;;;;;;;5054701;28;20028;-54
2023/12/29 13:31:30;;;;;;;1.33;0.70;;;;;;;;;;5054049;28;20024;-56
2023/12/29 13:34:04;;;;;;;1.67;0.90;;;;;;;;;;5054033;28;20028;-56
2023/12/29 13:36:36;;;;;;;2.63;0.77;;;;;;;;;;5054545;28;20033;-56
2023/12/29 13:39:22;;;;;;;1.48;0.80;;;;;;;;;;5053897;28;20458;-56
2023/12/29 13:41:49;;;;;;;1.42;0.82;;;;;;;;;;5042922;28;20036;-55
2023/12/29 13:44:15;;;;;;;1.38;0.65;;;;;;;;;;5053819;28;20035;-54
2023/12/29 13:46:41;;;;;;;1.90;0.93;;;;;;;;;;5054658;28;20063;-55
2023/12/29 13:49:08;;;;;;;1.33;0.70;;;;;;;;;;5053748;28;20025;-55
2023/12/29 13:51:34;;;;;;;1.60;0.90;;;;;;;;;;5054334;28;20025;-56
2023/12/29 13:54:00;;;;;;;1.90;1.00;;;;;;;;;;5054016;28;20029;-56
2023/12/29 13:56:26;;;;;;;2.47;0.80;;;;;;;;;;5054225;28;20111;-56
2023/12/29 13:58:52;;;;;;;2.72;1.02;;;;;;;;;;5054299;28;20021;-57
2023/12/29 14:01:18;;;;;;;1.52;0.88;;;;;;;;;;5053636;28;20021;-57
2023/12/29 14:03:51;;;;;;;2.15;1.02;;;;;;;;;;5054191;28;20029;-56
2023/12/29 14:06:30;;;;;;;1.48;0.73;;;;;;;;;;5054770;28;20351;-55
2023/12/29 14:08:56;;;;;;;1.70;0.70;;;;;;;;;;5053983;28;20025;-56
2023/12/29 14:11:22;;;;;;;1.70;0.90;;;;;;;;;;5054146;28;20063;-56
2023/12/29 14:13:48;;;;;;;2.42;1.08;;;;;;;;;;5053570;28;20379;-56
2023/12/29 14:16:15;;;;;;;1.55;0.80;;;;;;;;;;5053449;28;20029;-56
2023/12/29 14:18:46;;;;;;;1.80;0.82;;;;;;;;;;5054151;28;20410;-58
2023/12/29 14:21:31;;;;;;;2.53;0.88;;;;;;;;;;5053568;28;20025;-57
2023/12/29 14:24:07;;;;;;;2.75;1.33;;;;;;;;;;5053235;28;20048;-58
2023/12/29 14:26:40;;;;;;;1.52;0.93;;;;;;;;;;5054305;28;20409;-57
2023/12/29 14:29:10;;;;;;;1.90;0.98;;;;;;;;;;5054005;28;20053;-58
2023/12/29 14:31:42;;;;;;;1.70;1.00;;;;;;;;;;5053421;28;20463;-59
2023/12/29 14:34:09;;;;;;;1.60;0.75;;;;;;;;;;5053416;28;20112;-58
2023/12/29 14:36:35;;;;;;;1.63;0.90;;;;;;;;;;5053872;28;20033;-57
2023/12/29 14:39:02;;;;;;;2.85;0.93;;;;;;;;;;5053404;28;20029;-57
2023/12/29 14:41:28;;;;;;;2.25;0.80;;;;;;;;;;5053202;28;20108;-58
2023/12/29 14:43:54;;;;;;;1.60;0.80;;;;;;;;;;5053280;28;20052;-58
2023/12/29 14:46:20;;;;;;;1.95;1.10;;;;;;;;;;5053214;28;20036;-58
2023/12/29 14:48:46;;;;;;;2.58;1.20;;;;;;;;;;5053809;28;20032;-57
2023/12/29 14:51:12;;;;;;;1.50;0.82;;;;;;;;;;5053292;28;20033;-55